sensor_id;sensor_type;location;lat;lon;timestamp;temperature;humidity
26583;DHT22;14230;45.382;10.998;2022-12-07T00:01:28;4.40;99.90
26583;DHT22;14230;45.382;10.998;2022-12-07T00:03:56;4.50;99.90
26583;DHT22;14230;45.382;10.998;2022-12-07T00:06:27;4.40;99.90
26583;DHT22;14230;45.382;10.998;2022-12-07T00:08:54;4.50;99.90
26583;DHT22;14230;45.382;10.998;2022-12-07T00:11:22;4.50;99.90
26583;DHT22;14230;45.382;10.998;2022-12-07T00:13:57;4.40;99.90
26583;DHT22;14230;45.382;10.998;2022-12-07T00:16:26;4.50;99.90
26583;DHT22;14230;45.382;10.998;2022-12-07T00:18:54;4.50;99.90
26583;DHT22;14230;45.382;10.998;2022-12-07T00:21:22;4.50;99.90
26583;DHT22;14230;45.382;10.998;2022-12-07T00:23:50;4.60;99.90
26583;DHT22;14230;45.382;10.998;2022-12-07T00:26:19;4.60;99.90
26583;DHT22;14230;45.382;10.998;2022-12-07T00:28:50;4.50;99.90
26583;DHT22;14230;45.382;10.998;2022-12-07T00:31:18;4.50;99.90
26583;DHT22;14230;45.382;10.998;2022-12-07T00:33:45;4.40;99.90
26583;DHT22;14230;45.382;10.998;2022-12-07T00:36:14;4.20;99.90
26583;DHT22;14230;45.382;10.998;2022-12-07T00:38:41;4.10;99.90
26583;DHT22;14230;45.382;10.998;2022-12-07T00:41:12;4.10;99.90
26583;DHT22;14230;45.382;10.998;2022-12-07T00:43:40;4.10;99.90
26583;DHT22;14230;45.382;10.998;2022-12-07T00:46:07;4.10;99.90
26583;DHT22;14230;45.382;10.998;2022-12-07T00:48:35;4.20;99.90
26583;DHT22;14230;45.382;10.998;2022-12-07T00:51:03;4.30;99.90
26583;DHT22;14230;45.382;10.998;2022-12-07T00:53:31;4.30;99.90
26583;DHT22;14230;45.382;10.998;2022-12-07T00:58:34;4.10;99.90
26583;DHT22;14230;45.382;10.998;2022-12-07T01:01:01;4.10;99.90
26583;DHT22;14230;45.382;10.998;2022-12-07T01:03:29;3.90;99.90
26583;DHT22;14230;45.382;10.998;2022-12-07T01:05:57;3.80;99.90
26583;DHT22;14230;45.382;10.998;2022-12-07T01:08:25;3.70;99.90
26583;DHT22;14230;45.382;10.998;2022-12-07T01:11:02;3.70;99.90
26583;DHT22;14230;45.382;10.998;2022-12-07T01:13:30;3.60;99.90
26583;DHT22;14230;45.382;10.998;2022-12-07T01:15:58;3.60;99.90
26583;DHT22;14230;45.382;10.998;2022-12-07T01:18:27;3.50;99.90
26583;DHT22;14230;45.382;10.998;2022-12-07T01:21:01;3.50;99.90
26583;DHT22;14230;45.382;10.998;2022-12-07T01:23:30;3.60;99.90
26583;DHT22;14230;45.382;10.998;2022-12-07T01:25:58;3.70;99.90
26583;DHT22;14230;45.382;10.998;2022-12-07T01:28:25;3.70;99.90
26583;DHT22;14230;45.382;10.998;2022-12-07T01:30:57;3.70;99.90
26583;DHT22;14230;45.382;10.998;2022-12-07T01:33:26;3.60;99.90
26583;DHT22;14230;45.382;10.998;2022-12-07T01:35:53;3.60;99.90
26583;DHT22;14230;45.382;10.998;2022-12-07T01:38:20;3.60;99.90
26583;DHT22;14230;45.382;10.998;2022-12-07T01:40:53;3.60;99.90
26583;DHT22;14230;45.382;10.998;2022-12-07T01:43:20;3.60;99.90
26583;DHT22;14230;45.382;10.998;2022-12-07T01:45:48;3.60;99.90
26583;DHT22;14230;45.382;10.998;2022-12-07T01:48:16;3.60;99.90
26583;DHT22;14230;45.382;10.998;2022-12-07T01:50:44;3.50;99.90
26583;DHT22;14230;45.382;10.998;2022-12-07T01:53:12;3.50;99.90
26583;DHT22;14230;45.382;10.998;2022-12-07T01:55:41;3.40;99.90
26583;DHT22;14230;45.382;10.998;2022-12-07T01:58:09;3.40;99.90
26583;DHT22;14230;45.382;10.998;2022-12-07T02:00:38;3.40;99.90
26583;DHT22;14230;45.382;10.998;2022-12-07T02:03:13;3.40;99.90
26583;DHT22;14230;45.382;10.998;2022-12-07T02:05:42;3.40;99.90
26583;DHT22;14230;45.382;10.998;2022-12-07T02:08:10;3.40;99.90
26583;DHT22;14230;45.382;10.998;2022-12-07T02:10:39;3.50;99.90
26583;DHT22;14230;45.382;10.998;2022-12-07T02:13:09;3.50;99.90
26583;DHT22;14230;45.382;10.998;2022-12-07T02:18:26;3.40;99.90
26583;DHT22;14230;45.382;10.998;2022-12-07T02:21:33;3.60;99.90
26583;DHT22;14230;45.382;10.998;2022-12-07T02:29:23;3.40;99.90
26583;DHT22;14230;45.382;10.998;2022-12-07T02:32:03;3.30;99.90
26583;DHT22;14230;45.382;10.998;2022-12-07T02:34:34;3.30;99.90
26583;DHT22;14230;45.382;10.998;2022-12-07T02:37:08;3.30;99.90
26583;DHT22;14230;45.382;10.998;2022-12-07T02:39:50;3.30;99.90
26583;DHT22;14230;45.382;10.998;2022-12-07T02:42:19;3.20;99.90
26583;DHT22;14230;45.382;10.998;2022-12-07T02:44:48;3.30;99.90
26583;DHT22;14230;45.382;10.998;2022-12-07T02:47:16;3.30;99.90
26583;DHT22;14230;45.382;10.998;2022-12-07T02:49:44;3.40;99.90
26583;DHT22;14230;45.382;10.998;2022-12-07T02:52:12;3.40;99.90
26583;DHT22;14230;45.382;10.998;2022-12-07T02:54:39;3.40;99.90
26583;DHT22;14230;45.382;10.998;2022-12-07T03:02:28;3.40;99.90
26583;DHT22;14230;45.382;10.998;2022-12-07T03:07:51;3.50;99.90
26583;DHT22;14230;45.382;10.998;2022-12-07T03:10:41;3.40;99.90
26583;DHT22;14230;45.382;10.998;2022-12-07T03:18:07;3.50;99.90
26583;DHT22;14230;45.382;10.998;2022-12-07T03:20:35;3.50;99.90
26583;DHT22;14230;45.382;10.998;2022-12-07T03:23:05;3.50;99.90
26583;DHT22;14230;45.382;10.998;2022-12-07T03:25:35;3.50;99.90
26583;DHT22;14230;45.382;10.998;2022-12-07T03:28:06;3.60;99.90
26583;DHT22;14230;45.382;10.998;2022-12-07T03:30:39;3.60;99.90
26583;DHT22;14230;45.382;10.998;2022-12-07T03:33:13;3.60;99.90
26583;DHT22;14230;45.382;10.998;2022-12-07T03:35:43;3.50;99.90
26583;DHT22;14230;45.382;10.998;2022-12-07T03:38:30;3.50;99.90
26583;DHT22;14230;45.382;10.998;2022-12-07T03:41:00;3.50;99.90
26583;DHT22;14230;45.382;10.998;2022-12-07T03:43:31;3.50;99.90
26583;DHT22;14230;45.382;10.998;2022-12-07T03:48:42;3.50;99.90
26583;DHT22;14230;45.382;10.998;2022-12-07T03:53:51;3.50;99.90
26583;DHT22;14230;45.382;10.998;2022-12-07T03:56:20;3.40;99.90
26583;DHT22;14230;45.382;10.998;2022-12-07T03:58:48;3.40;99.90
26583;DHT22;14230;45.382;10.998;2022-12-07T04:01:17;3.40;99.90
26583;DHT22;14230;45.382;10.998;2022-12-07T04:03:44;3.40;99.90
26583;DHT22;14230;45.382;10.998;2022-12-07T04:06:13;3.40;99.90
26583;DHT22;14230;45.382;10.998;2022-12-07T04:08:40;3.40;99.90
26583;DHT22;14230;45.382;10.998;2022-12-07T04:11:07;3.30;99.90
26583;DHT22;14230;45.382;10.998;2022-12-07T04:13:34;3.20;99.90
26583;DHT22;14230;45.382;10.998;2022-12-07T04:16:22;3.20;99.90
26583;DHT22;14230;45.382;10.998;2022-12-07T04:18:50;3.30;99.90
26583;DHT22;14230;45.382;10.998;2022-12-07T04:21:17;3.30;99.90
26583;DHT22;14230;45.382;10.998;2022-12-07T04:23:44;3.30;99.90
26583;DHT22;14230;45.382;10.998;2022-12-07T04:26:11;3.30;99.90
26583;DHT22;14230;45.382;10.998;2022-12-07T04:28:38;3.40;99.90
26583;DHT22;14230;45.382;10.998;2022-12-07T04:31:05;3.40;99.90
26583;DHT22;14230;45.382;10.998;2022-12-07T04:33:33;3.40;99.90
26583;DHT22;14230;45.382;10.998;2022-12-07T04:36:00;3.30;99.90
26583;DHT22;14230;45.382;10.998;2022-12-07T04:38:27;3.30;99.90
26583;DHT22;14230;45.382;10.998;2022-12-07T04:40:54;3.20;99.90
26583;DHT22;14230;45.382;10.998;2022-12-07T04:43:21;3.20;99.90
26583;DHT22;14230;45.382;10.998;2022-12-07T04:45:49;3.20;99.90
26583;DHT22;14230;45.382;10.998;2022-12-07T04:48:17;3.30;99.90
26583;DHT22;14230;45.382;10.998;2022-12-07T04:50:48;3.30;99.90
26583;DHT22;14230;45.382;10.998;2022-12-07T04:53:16;3.30;99.90
26583;DHT22;14230;45.382;10.998;2022-12-07T04:55:43;3.30;99.90
26583;DHT22;14230;45.382;10.998;2022-12-07T04:58:11;3.30;99.90
26583;DHT22;14230;45.382;10.998;2022-12-07T05:00:38;3.30;99.90
26583;DHT22;14230;45.382;10.998;2022-12-07T05:03:05;3.20;99.90
26583;DHT22;14230;45.382;10.998;2022-12-07T05:05:33;3.20;99.90
26583;DHT22;14230;45.382;10.998;2022-12-07T05:08:00;3.20;99.90
26583;DHT22;14230;45.382;10.998;2022-12-07T05:10:30;3.20;99.90
26583;DHT22;14230;45.382;10.998;2022-12-07T05:12:57;3.30;99.90
26583;DHT22;14230;45.382;10.998;2022-12-07T05:15:25;3.30;99.90
26583;DHT22;14230;45.382;10.998;2022-12-07T05:17:52;3.30;99.90
26583;DHT22;14230;45.382;10.998;2022-12-07T05:20:19;3.20;99.90
26583;DHT22;14230;45.382;10.998;2022-12-07T05:22:46;3.10;99.90
26583;DHT22;14230;45.382;10.998;2022-12-07T05:25:14;3.10;99.90
26583;DHT22;14230;45.382;10.998;2022-12-07T05:27:41;3.10;99.90
26583;DHT22;14230;45.382;10.998;2022-12-07T05:30:08;3.20;99.90
26583;DHT22;14230;45.382;10.998;2022-12-07T05:32:35;3.20;99.90
26583;DHT22;14230;45.382;10.998;2022-12-07T05:35:03;3.10;99.90
26583;DHT22;14230;45.382;10.998;2022-12-07T05:37:30;3.10;99.90
26583;DHT22;14230;45.382;10.998;2022-12-07T05:39:57;3.10;99.90
26583;DHT22;14230;45.382;10.998;2022-12-07T05:42:24;3.10;99.90
26583;DHT22;14230;45.382;10.998;2022-12-07T05:44:51;3.10;99.90
26583;DHT22;14230;45.382;10.998;2022-12-07T05:47:19;3.00;99.90
26583;DHT22;14230;45.382;10.998;2022-12-07T05:49:46;3.00;99.90
26583;DHT22;14230;45.382;10.998;2022-12-07T05:52:13;2.90;99.90
26583;DHT22;14230;45.382;10.998;2022-12-07T05:54:40;2.90;99.90
26583;DHT22;14230;45.382;10.998;2022-12-07T05:57:08;2.90;99.90
26583;DHT22;14230;45.382;10.998;2022-12-07T05:59:35;2.90;99.90
26583;DHT22;14230;45.382;10.998;2022-12-07T06:02:04;2.90;99.90
26583;DHT22;14230;45.382;10.998;2022-12-07T06:04:32;2.90;99.90
26583;DHT22;14230;45.382;10.998;2022-12-07T06:07:00;3.00;99.90
26583;DHT22;14230;45.382;10.998;2022-12-07T06:09:28;3.00;99.90
26583;DHT22;14230;45.382;10.998;2022-12-07T06:11:55;3.00;99.90
26583;DHT22;14230;45.382;10.998;2022-12-07T06:14:41;3.00;99.90
26583;DHT22;14230;45.382;10.998;2022-12-07T06:17:09;3.00;99.90
26583;DHT22;14230;45.382;10.998;2022-12-07T06:19:36;2.90;99.90
26583;DHT22;14230;45.382;10.998;2022-12-07T06:22:03;2.90;99.90
26583;DHT22;14230;45.382;10.998;2022-12-07T06:24:32;2.80;99.90
26583;DHT22;14230;45.382;10.998;2022-12-07T06:26:59;2.80;99.90
26583;DHT22;14230;45.382;10.998;2022-12-07T06:29:26;2.90;99.90
26583;DHT22;14230;45.382;10.998;2022-12-07T06:31:53;2.90;99.90
26583;DHT22;14230;45.382;10.998;2022-12-07T06:34:21;2.80;99.90
26583;DHT22;14230;45.382;10.998;2022-12-07T06:36:49;2.70;99.90
26583;DHT22;14230;45.382;10.998;2022-12-07T06:39:19;2.70;99.90
26583;DHT22;14230;45.382;10.998;2022-12-07T06:41:48;2.70;99.90
26583;DHT22;14230;45.382;10.998;2022-12-07T06:44:16;2.80;99.90
26583;DHT22;14230;45.382;10.998;2022-12-07T06:46:43;2.80;99.90
26583;DHT22;14230;45.382;10.998;2022-12-07T06:49:10;2.80;99.90
26583;DHT22;14230;45.382;10.998;2022-12-07T06:51:37;2.80;99.90
26583;DHT22;14230;45.382;10.998;2022-12-07T06:54:08;2.80;99.90
26583;DHT22;14230;45.382;10.998;2022-12-07T06:56:35;2.90;99.90
26583;DHT22;14230;45.382;10.998;2022-12-07T06:59:03;2.90;99.90
26583;DHT22;14230;45.382;10.998;2022-12-07T07:01:33;3.00;99.90
26583;DHT22;14230;45.382;10.998;2022-12-07T07:04:01;3.00;99.90
26583;DHT22;14230;45.382;10.998;2022-12-07T07:06:28;3.10;99.90
26583;DHT22;14230;45.382;10.998;2022-12-07T07:08:55;3.10;99.90
26583;DHT22;14230;45.382;10.998;2022-12-07T07:11:23;3.20;99.90
26583;DHT22;14230;45.382;10.998;2022-12-07T07:13:50;3.30;99.90
26583;DHT22;14230;45.382;10.998;2022-12-07T07:16:17;3.30;99.90
26583;DHT22;14230;45.382;10.998;2022-12-07T07:18:44;3.20;99.90
26583;DHT22;14230;45.382;10.998;2022-12-07T07:21:11;3.20;99.90
26583;DHT22;14230;45.382;10.998;2022-12-07T07:23:39;3.20;99.90
26583;DHT22;14230;45.382;10.998;2022-12-07T07:26:06;3.20;99.90
26583;DHT22;14230;45.382;10.998;2022-12-07T07:28:33;3.20;99.90
26583;DHT22;14230;45.382;10.998;2022-12-07T07:31:00;3.20;99.90
26583;DHT22;14230;45.382;10.998;2022-12-07T07:33:27;3.20;99.90
26583;DHT22;14230;45.382;10.998;2022-12-07T07:35:55;3.20;99.90
26583;DHT22;14230;45.382;10.998;2022-12-07T07:38:22;3.30;99.90
26583;DHT22;14230;45.382;10.998;2022-12-07T07:40:49;3.40;99.90
26583;DHT22;14230;45.382;10.998;2022-12-07T07:43:16;3.20;99.90
26583;DHT22;14230;45.382;10.998;2022-12-07T07:45:44;3.30;99.90
26583;DHT22;14230;45.382;10.998;2022-12-07T07:48:11;3.40;99.90
26583;DHT22;14230;45.382;10.998;2022-12-07T07:50:38;3.40;99.90
26583;DHT22;14230;45.382;10.998;2022-12-07T07:53:05;3.40;99.90
26583;DHT22;14230;45.382;10.998;2022-12-07T07:55:33;3.40;99.90
26583;DHT22;14230;45.382;10.998;2022-12-07T07:58:00;3.30;99.90
26583;DHT22;14230;45.382;10.998;2022-12-07T08:00:27;3.40;99.90
26583;DHT22;14230;45.382;10.998;2022-12-07T08:02:54;3.50;99.90
26583;DHT22;14230;45.382;10.998;2022-12-07T08:05:21;3.50;99.90
26583;DHT22;14230;45.382;10.998;2022-12-07T08:07:48;3.60;99.90
26583;DHT22;14230;45.382;10.998;2022-12-07T08:10:16;3.60;99.90
26583;DHT22;14230;45.382;10.998;2022-12-07T08:12:44;3.60;99.90
26583;DHT22;14230;45.382;10.998;2022-12-07T08:15:30;3.60;99.90
26583;DHT22;14230;45.382;10.998;2022-12-07T08:17:58;3.70;99.90
26583;DHT22;14230;45.382;10.998;2022-12-07T08:20:25;3.70;99.90
26583;DHT22;14230;45.382;10.998;2022-12-07T08:22:53;3.70;99.90
26583;DHT22;14230;45.382;10.998;2022-12-07T08:25:20;3.90;99.90
26583;DHT22;14230;45.382;10.998;2022-12-07T08:27:49;4.10;99.90
26583;DHT22;14230;45.382;10.998;2022-12-07T08:30:16;4.00;99.90
26583;DHT22;14230;45.382;10.998;2022-12-07T08:32:44;4.20;99.90
26583;DHT22;14230;45.382;10.998;2022-12-07T08:35:12;4.40;99.90
26583;DHT22;14230;45.382;10.998;2022-12-07T08:37:39;4.50;99.90
26583;DHT22;14230;45.382;10.998;2022-12-07T08:40:08;4.50;99.90
26583;DHT22;14230;45.382;10.998;2022-12-07T08:42:36;4.60;99.90
26583;DHT22;14230;45.382;10.998;2022-12-07T08:45:08;4.60;99.90
26583;DHT22;14230;45.382;10.998;2022-12-07T08:47:40;4.80;99.90
26583;DHT22;14230;45.382;10.998;2022-12-07T08:50:08;5.00;99.90
26583;DHT22;14230;45.382;10.998;2022-12-07T08:52:36;5.20;99.90
26583;DHT22;14230;45.382;10.998;2022-12-07T08:55:04;5.30;99.90
26583;DHT22;14230;45.382;10.998;2022-12-07T08:57:32;5.30;99.90
26583;DHT22;14230;45.382;10.998;2022-12-07T09:00:00;5.20;99.90
26583;DHT22;14230;45.382;10.998;2022-12-07T09:02:27;5.20;99.90
26583;DHT22;14230;45.382;10.998;2022-12-07T09:04:55;5.10;99.90
26583;DHT22;14230;45.382;10.998;2022-12-07T09:07:22;5.10;99.90
26583;DHT22;14230;45.382;10.998;2022-12-07T09:09:49;4.90;99.90
26583;DHT22;14230;45.382;10.998;2022-12-07T09:12:17;4.90;99.90
26583;DHT22;14230;45.382;10.998;2022-12-07T09:14:44;5.10;99.90
26583;DHT22;14230;45.382;10.998;2022-12-07T09:17:11;5.00;99.90
26583;DHT22;14230;45.382;10.998;2022-12-07T09:19:39;5.10;99.90
26583;DHT22;14230;45.382;10.998;2022-12-07T09:22:07;5.80;99.90
26583;DHT22;14230;45.382;10.998;2022-12-07T09:24:34;6.50;99.90
26583;DHT22;14230;45.382;10.998;2022-12-07T09:27:01;6.90;99.90
26583;DHT22;14230;45.382;10.998;2022-12-07T09:29:29;6.90;99.90
26583;DHT22;14230;45.382;10.998;2022-12-07T09:31:56;6.90;99.90
26583;DHT22;14230;45.382;10.998;2022-12-07T09:34:23;6.90;99.90
26583;DHT22;14230;45.382;10.998;2022-12-07T09:36:50;6.80;99.90
26583;DHT22;14230;45.382;10.998;2022-12-07T09:39:18;6.80;99.90
26583;DHT22;14230;45.382;10.998;2022-12-07T09:41:45;7.20;99.90
26583;DHT22;14230;45.382;10.998;2022-12-07T09:44:13;7.80;99.90
26583;DHT22;14230;45.382;10.998;2022-12-07T09:46:42;8.40;99.90
26583;DHT22;14230;45.382;10.998;2022-12-07T09:49:11;9.50;99.90
26583;DHT22;14230;45.382;10.998;2022-12-07T09:51:39;10.70;99.90
26583;DHT22;14230;45.382;10.998;2022-12-07T09:54:07;11.60;99.90
26583;DHT22;14230;45.382;10.998;2022-12-07T09:56:36;12.50;99.90
26583;DHT22;14230;45.382;10.998;2022-12-07T09:59:03;12.70;99.90
26583;DHT22;14230;45.382;10.998;2022-12-07T10:01:31;13.50;99.90
26583;DHT22;14230;45.382;10.998;2022-12-07T10:04:01;14.10;99.90
26583;DHT22;14230;45.382;10.998;2022-12-07T10:06:32;14.60;99.90
26583;DHT22;14230;45.382;10.998;2022-12-07T10:08:59;14.70;99.90
26583;DHT22;14230;45.382;10.998;2022-12-07T10:11:27;15.30;99.90
26583;DHT22;14230;45.382;10.998;2022-12-07T10:13:54;15.50;99.90
26583;DHT22;14230;45.382;10.998;2022-12-07T10:16:28;15.40;99.90
26583;DHT22;14230;45.382;10.998;2022-12-07T10:18:57;15.10;99.90
26583;DHT22;14230;45.382;10.998;2022-12-07T10:21:58;15.40;99.90
26583;DHT22;14230;45.382;10.998;2022-12-07T10:24:26;14.80;99.90
26583;DHT22;14230;45.382;10.998;2022-12-07T10:26:53;14.70;99.90
26583;DHT22;14230;45.382;10.998;2022-12-07T10:29:30;14.00;99.90
26583;DHT22;14230;45.382;10.998;2022-12-07T10:32:02;12.50;99.90
26583;DHT22;14230;45.382;10.998;2022-12-07T10:34:34;11.50;99.90
26583;DHT22;14230;45.382;10.998;2022-12-07T10:39:55;9.50;99.90
26583;DHT22;14230;45.382;10.998;2022-12-07T10:44:50;8.80;99.90
26583;DHT22;14230;45.382;10.998;2022-12-07T10:55:26;7.80;99.90
26583;DHT22;14230;45.382;10.998;2022-12-07T11:00:30;7.50;99.90
26583;DHT22;14230;45.382;10.998;2022-12-07T11:03:03;7.40;99.90
26583;DHT22;14230;45.382;10.998;2022-12-07T11:05:54;7.10;99.90
26583;DHT22;14230;45.382;10.998;2022-12-07T11:13:49;6.80;99.90
26583;DHT22;14230;45.382;10.998;2022-12-07T11:16:21;6.80;99.90
26583;DHT22;14230;45.382;10.998;2022-12-07T11:21:58;7.00;99.90
26583;DHT22;14230;45.382;10.998;2022-12-07T11:25:14;7.20;99.90
26583;DHT22;14230;45.382;10.998;2022-12-07T11:37:44;6.80;99.90
26583;DHT22;14230;45.382;10.998;2022-12-07T11:45:41;7.10;99.90
26583;DHT22;14230;45.382;10.998;2022-12-07T11:48:14;7.10;99.90
26583;DHT22;14230;45.382;10.998;2022-12-07T11:50:45;6.90;99.90
26583;DHT22;14230;45.382;10.998;2022-12-07T11:53:16;6.90;99.90
26583;DHT22;14230;45.382;10.998;2022-12-07T12:01:02;7.40;99.90
26583;DHT22;14230;45.382;10.998;2022-12-07T12:03:35;7.50;99.90
26583;DHT22;14230;45.382;10.998;2022-12-07T12:06:05;7.50;99.90
26583;DHT22;14230;45.382;10.998;2022-12-07T12:08:33;7.40;99.90
26583;DHT22;14230;45.382;10.998;2022-12-07T12:25:34;7.20;99.90
26583;DHT22;14230;45.382;10.998;2022-12-07T12:28:03;7.10;99.90
26583;DHT22;14230;45.382;10.998;2022-12-07T12:33:05;7.20;99.90
26583;DHT22;14230;45.382;10.998;2022-12-07T12:35:36;7.20;99.90
26583;DHT22;14230;45.382;10.998;2022-12-07T12:40:49;7.40;99.90
26583;DHT22;14230;45.382;10.998;2022-12-07T12:48:49;7.60;99.90
26583;DHT22;14230;45.382;10.998;2022-12-07T12:51:35;7.60;99.90
26583;DHT22;14230;45.382;10.998;2022-12-07T12:54:11;7.60;99.90
26583;DHT22;14230;45.382;10.998;2022-12-07T12:56:42;7.60;99.90
26583;DHT22;14230;45.382;10.998;2022-12-07T12:59:35;7.70;99.90
26583;DHT22;14230;45.382;10.998;2022-12-07T13:07:47;7.70;99.90
26583;DHT22;14230;45.382;10.998;2022-12-07T13:10:18;7.70;99.90
26583;DHT22;14230;45.382;10.998;2022-12-07T13:20:42;7.80;99.90
26583;DHT22;14230;45.382;10.998;2022-12-07T13:23:11;7.90;99.90
26583;DHT22;14230;45.382;10.998;2022-12-07T13:28:36;7.90;99.90
26583;DHT22;14230;45.382;10.998;2022-12-07T13:31:13;8.00;99.90
26583;DHT22;14230;45.382;10.998;2022-12-07T13:33:44;8.00;99.90
26583;DHT22;14230;45.382;10.998;2022-12-07T13:36:19;8.10;99.90
26583;DHT22;14230;45.382;10.998;2022-12-07T13:38:52;8.10;99.90
26583;DHT22;14230;45.382;10.998;2022-12-07T13:41:20;8.10;99.90
26583;DHT22;14230;45.382;10.998;2022-12-07T13:43:59;8.20;99.90
26583;DHT22;14230;45.382;10.998;2022-12-07T13:46:31;8.10;99.90
26583;DHT22;14230;45.382;10.998;2022-12-07T13:48:59;8.20;99.90
26583;DHT22;14230;45.382;10.998;2022-12-07T13:51:27;8.10;99.90
26583;DHT22;14230;45.382;10.998;2022-12-07T13:54:06;8.10;99.90
26583;DHT22;14230;45.382;10.998;2022-12-07T13:56:35;8.10;99.90
26583;DHT22;14230;45.382;10.998;2022-12-07T13:59:04;8.10;99.90
26583;DHT22;14230;45.382;10.998;2022-12-07T14:01:32;8.00;99.90
26583;DHT22;14230;45.382;10.998;2022-12-07T14:06:49;8.00;99.90
26583;DHT22;14230;45.382;10.998;2022-12-07T14:09:19;7.90;99.90
26583;DHT22;14230;45.382;10.998;2022-12-07T14:11:47;7.90;99.90
26583;DHT22;14230;45.382;10.998;2022-12-07T14:14:19;7.80;99.90
26583;DHT22;14230;45.382;10.998;2022-12-07T14:17:11;7.80;99.90
26583;DHT22;14230;45.382;10.998;2022-12-07T14:19:47;7.70;99.90
26583;DHT22;14230;45.382;10.998;2022-12-07T14:24:58;7.60;99.90
26583;DHT22;14230;45.382;10.998;2022-12-07T14:27:30;7.50;99.90
26583;DHT22;14230;45.382;10.998;2022-12-07T14:30:01;7.50;99.90
26583;DHT22;14230;45.382;10.998;2022-12-07T14:32:29;7.40;99.90
26583;DHT22;14230;45.382;10.998;2022-12-07T14:34:57;7.30;99.90
26583;DHT22;14230;45.382;10.998;2022-12-07T14:37:25;7.10;99.90
26583;DHT22;14230;45.382;10.998;2022-12-07T14:39:52;7.10;99.90
26583;DHT22;14230;45.382;10.998;2022-12-07T14:42:20;7.10;99.90
26583;DHT22;14230;45.382;10.998;2022-12-07T14:44:47;7.00;99.90
26583;DHT22;14230;45.382;10.998;2022-12-07T14:47:14;7.00;99.90
26583;DHT22;14230;45.382;10.998;2022-12-07T14:50:01;6.90;99.90
26583;DHT22;14230;45.382;10.998;2022-12-07T14:52:32;6.80;99.90
26583;DHT22;14230;45.382;10.998;2022-12-07T14:55:29;6.70;99.90
26583;DHT22;14230;45.382;10.998;2022-12-07T14:57:57;6.60;99.90
26583;DHT22;14230;45.382;10.998;2022-12-07T15:00:26;6.60;99.90
26583;DHT22;14230;45.382;10.998;2022-12-07T15:02:53;6.60;99.90
26583;DHT22;14230;45.382;10.998;2022-12-07T15:05:21;6.40;99.90
26583;DHT22;14230;45.382;10.998;2022-12-07T15:07:49;6.30;99.90
26583;DHT22;14230;45.382;10.998;2022-12-07T15:10:21;6.20;99.90
26583;DHT22;14230;45.382;10.998;2022-12-07T15:12:50;6.20;99.90
26583;DHT22;14230;45.382;10.998;2022-12-07T15:15:18;6.10;99.90
26583;DHT22;14230;45.382;10.998;2022-12-07T15:17:46;6.00;99.90
26583;DHT22;14230;45.382;10.998;2022-12-07T15:20:13;6.00;99.90
26583;DHT22;14230;45.382;10.998;2022-12-07T15:22:41;6.00;99.90
26583;DHT22;14230;45.382;10.998;2022-12-07T15:25:09;5.80;99.90
26583;DHT22;14230;45.382;10.998;2022-12-07T15:27:39;5.80;99.90
26583;DHT22;14230;45.382;10.998;2022-12-07T15:30:06;5.60;99.90
26583;DHT22;14230;45.382;10.998;2022-12-07T15:32:34;5.60;99.90
26583;DHT22;14230;45.382;10.998;2022-12-07T15:35:01;5.50;99.90
26583;DHT22;14230;45.382;10.998;2022-12-07T15:37:28;5.40;99.90
26583;DHT22;14230;45.382;10.998;2022-12-07T15:39:56;5.30;99.90
26583;DHT22;14230;45.382;10.998;2022-12-07T15:42:26;5.30;99.90
26583;DHT22;14230;45.382;10.998;2022-12-07T15:44:53;5.20;99.90
26583;DHT22;14230;45.382;10.998;2022-12-07T15:47:37;5.20;99.90
26583;DHT22;14230;45.382;10.998;2022-12-07T15:50:25;5.20;99.90
26583;DHT22;14230;45.382;10.998;2022-12-07T15:52:52;5.10;99.90
26583;DHT22;14230;45.382;10.998;2022-12-07T15:55:19;5.10;99.90
26583;DHT22;14230;45.382;10.998;2022-12-07T15:57:47;5.10;99.90
26583;DHT22;14230;45.382;10.998;2022-12-07T16:00:14;5.00;99.90
26583;DHT22;14230;45.382;10.998;2022-12-07T16:02:42;5.00;99.90
26583;DHT22;14230;45.382;10.998;2022-12-07T16:05:09;5.00;99.90
26583;DHT22;14230;45.382;10.998;2022-12-07T16:07:36;4.90;99.90
26583;DHT22;14230;45.382;10.998;2022-12-07T16:10:03;4.90;99.90
26583;DHT22;14230;45.382;10.998;2022-12-07T16:12:31;4.90;99.90
26583;DHT22;14230;45.382;10.998;2022-12-07T16:14:58;4.80;99.90
26583;DHT22;14230;45.382;10.998;2022-12-07T16:17:25;4.80;99.90
26583;DHT22;14230;45.382;10.998;2022-12-07T16:19:52;4.80;99.90
26583;DHT22;14230;45.382;10.998;2022-12-07T16:22:20;4.70;99.90
26583;DHT22;14230;45.382;10.998;2022-12-07T16:24:47;4.80;99.90
26583;DHT22;14230;45.382;10.998;2022-12-07T16:27:14;4.80;99.90
26583;DHT22;14230;45.382;10.998;2022-12-07T16:29:42;4.80;99.90
26583;DHT22;14230;45.382;10.998;2022-12-07T16:32:09;4.80;99.90
26583;DHT22;14230;45.382;10.998;2022-12-07T16:34:36;4.70;99.90
26583;DHT22;14230;45.382;10.998;2022-12-07T16:37:03;4.80;99.90
26583;DHT22;14230;45.382;10.998;2022-12-07T16:39:32;4.70;99.90
26583;DHT22;14230;45.382;10.998;2022-12-07T16:42:00;4.60;99.90
26583;DHT22;14230;45.382;10.998;2022-12-07T16:44:28;4.60;99.90
26583;DHT22;14230;45.382;10.998;2022-12-07T16:46:55;4.60;99.90
26583;DHT22;14230;45.382;10.998;2022-12-07T16:49:22;4.50;99.90
26583;DHT22;14230;45.382;10.998;2022-12-07T16:51:51;4.50;99.90
26583;DHT22;14230;45.382;10.998;2022-12-07T16:54:38;4.50;99.90
26583;DHT22;14230;45.382;10.998;2022-12-07T16:57:05;4.40;99.90
26583;DHT22;14230;45.382;10.998;2022-12-07T16:59:32;4.50;99.90
26583;DHT22;14230;45.382;10.998;2022-12-07T17:02:00;4.30;99.90
26583;DHT22;14230;45.382;10.998;2022-12-07T17:04:27;4.40;99.90
26583;DHT22;14230;45.382;10.998;2022-12-07T17:06:54;4.40;99.90
26583;DHT22;14230;45.382;10.998;2022-12-07T17:09:21;4.30;99.90
26583;DHT22;14230;45.382;10.998;2022-12-07T17:11:49;4.20;99.90
26583;DHT22;14230;45.382;10.998;2022-12-07T17:14:16;4.30;99.90
26583;DHT22;14230;45.382;10.998;2022-12-07T17:17:02;4.40;99.90
26583;DHT22;14230;45.382;10.998;2022-12-07T17:19:31;4.50;99.90
26583;DHT22;14230;45.382;10.998;2022-12-07T17:21:58;4.50;99.90
26583;DHT22;14230;45.382;10.998;2022-12-07T17:24:25;4.30;99.90
26583;DHT22;14230;45.382;10.998;2022-12-07T17:26:52;4.30;99.90
26583;DHT22;14230;45.382;10.998;2022-12-07T17:29:20;4.20;99.90
26583;DHT22;14230;45.382;10.998;2022-12-07T17:31:47;4.20;99.90
26583;DHT22;14230;45.382;10.998;2022-12-07T17:34:18;4.10;99.90
26583;DHT22;14230;45.382;10.998;2022-12-07T17:36:45;4.00;99.90
26583;DHT22;14230;45.382;10.998;2022-12-07T17:39:15;3.80;99.90
26583;DHT22;14230;45.382;10.998;2022-12-07T17:41:42;3.70;99.90
26583;DHT22;14230;45.382;10.998;2022-12-07T17:44:29;3.70;99.90
26583;DHT22;14230;45.382;10.998;2022-12-07T17:46:56;3.60;99.90